sensor_id;sensor_type;location;lat;lon;timestamp;P1;durP1;ratioP1;P2;durP2;ratioP2
4202;SDS011;2115;51.038;7.006;2022-12-29T00:01:46;597.27;;;149.47;;
4202;SDS011;2115;51.038;7.006;2022-12-29T00:04:12;598.20;;;149.37;;
4202;SDS011;2115;51.038;7.006;2022-12-29T00:06:38;605.23;;;151.70;;
4202;SDS011;2115;51.038;7.006;2022-12-29T00:09:04;600.17;;;149.33;;
4202;SDS011;2115;51.038;7.006;2022-12-29T00:11:29;606.17;;;155.57;;
4202;SDS011;2115;51.038;7.006;2022-12-29T00:13:54;598.07;;;148.90;;
4202;SDS011;2115;51.038;7.006;2022-12-29T00:16:42;593.10;;;148.90;;
4202;SDS011;2115;51.038;7.006;2022-12-29T00:19:09;594.47;;;150.57;;
4202;SDS011;2115;51.038;7.006;2022-12-29T00:21:54;611.73;;;152.03;;
4202;SDS011;2115;51.038;7.006;2022-12-29T00:24:38;595.07;;;151.93;;
4202;SDS011;2115;51.038;7.006;2022-12-29T00:27:22;603.37;;;165.17;;
4202;SDS011;2115;51.038;7.006;2022-12-29T00:30:13;588.60;;;146.50;;
4202;SDS011;2115;51.038;7.006;2022-12-29T00:32:59;587.27;;;148.90;;
4202;SDS011;2115;51.038;7.006;2022-12-29T00:35:47;479.03;;;119.40;;
4202;SDS011;2115;51.038;7.006;2022-12-29T00:38:17;594.13;;;150.53;;
4202;SDS011;2115;51.038;7.006;2022-12-29T00:41:02;597.83;;;151.63;;
4202;SDS011;2115;51.038;7.006;2022-12-29T00:43:45;581.93;;;148.73;;
4202;SDS011;2115;51.038;7.006;2022-12-29T00:46:30;592.53;;;154.47;;
4202;SDS011;2115;51.038;7.006;2022-12-29T00:48:56;576.70;;;150.03;;
4202;SDS011;2115;51.038;7.006;2022-12-29T00:51:41;580.10;;;151.37;;
4202;SDS011;2115;51.038;7.006;2022-12-29T00:54:06;585.77;;;152.10;;
4202;SDS011;2115;51.038;7.006;2022-12-29T00:56:32;587.70;;;151.47;;
4202;SDS011;2115;51.038;7.006;2022-12-29T00:59:04;510.47;;;127.73;;
4202;SDS011;2115;51.038;7.006;2022-12-29T01:01:30;595.77;;;152.43;;
4202;SDS011;2115;51.038;7.006;2022-12-29T01:03:56;591.27;;;152.60;;
4202;SDS011;2115;51.038;7.006;2022-12-29T01:06:21;593.13;;;151.87;;
4202;SDS011;2115;51.038;7.006;2022-12-29T01:08:47;593.63;;;151.33;;
4202;SDS011;2115;51.038;7.006;2022-12-29T01:11:32;600.40;;;154.20;;
4202;SDS011;2115;51.038;7.006;2022-12-29T01:13:58;481.37;;;117.53;;
4202;SDS011;2115;51.038;7.006;2022-12-29T01:16:23;594.67;;;150.17;;
4202;SDS011;2115;51.038;7.006;2022-12-29T01:18:48;605.37;;;158.10;;
4202;SDS011;2115;51.038;7.006;2022-12-29T01:21:14;593.13;;;152.17;;
4202;SDS011;2115;51.038;7.006;2022-12-29T01:23:39;574.03;;;151.60;;
4202;SDS011;2115;51.038;7.006;2022-12-29T01:26:08;569.57;;;156.90;;
4202;SDS011;2115;51.038;7.006;2022-12-29T01:28:35;585.83;;;157.47;;
4202;SDS011;2115;51.038;7.006;2022-12-29T01:31:01;482.87;;;124.03;;
4202;SDS011;2115;51.038;7.006;2022-12-29T01:33:26;563.70;;;153.70;;
4202;SDS011;2115;51.038;7.006;2022-12-29T01:35:52;577.37;;;152.63;;
4202;SDS011;2115;51.038;7.006;2022-12-29T01:38:17;575.07;;;150.07;;
4202;SDS011;2115;51.038;7.006;2022-12-29T01:40:43;566.50;;;152.30;;
4202;SDS011;2115;51.038;7.006;2022-12-29T01:43:10;564.40;;;152.77;;
4202;SDS011;2115;51.038;7.006;2022-12-29T01:45:38;564.57;;;153.67;;
4202;SDS011;2115;51.038;7.006;2022-12-29T01:48:05;472.30;;;128.80;;
4202;SDS011;2115;51.038;7.006;2022-12-29T01:50:35;476.23;;;128.53;;
4202;SDS011;2115;51.038;7.006;2022-12-29T01:53:05;560.73;;;154.37;;
4202;SDS011;2115;51.038;7.006;2022-12-29T01:55:35;568.63;;;153.70;;
4202;SDS011;2115;51.038;7.006;2022-12-29T01:58:04;574.90;;;152.60;;
4202;SDS011;2115;51.038;7.006;2022-12-29T02:00:31;580.93;;;155.40;;
4202;SDS011;2115;51.038;7.006;2022-12-29T02:02:56;588.57;;;153.20;;
4202;SDS011;2115;51.038;7.006;2022-12-29T02:07:50;592.53;;;154.07;;
4202;SDS011;2115;51.038;7.006;2022-12-29T02:10:17;610.20;;;156.30;;
4202;SDS011;2115;51.038;7.006;2022-12-29T02:12:44;609.07;;;156.00;;
4202;SDS011;2115;51.038;7.006;2022-12-29T02:15:10;591.70;;;151.70;;
4202;SDS011;2115;51.038;7.006;2022-12-29T02:18:02;591.17;;;152.37;;
4202;SDS011;2115;51.038;7.006;2022-12-29T02:20:33;602.13;;;156.50;;
4202;SDS011;2115;51.038;7.006;2022-12-29T02:26:14;608.97;;;157.17;;
4202;SDS011;2115;51.038;7.006;2022-12-29T02:31:52;618.77;;;157.30;;
4202;SDS011;2115;51.038;7.006;2022-12-29T02:37:14;625.47;;;153.87;;
4202;SDS011;2115;51.038;7.006;2022-12-29T02:39:56;630.17;;;154.90;;
4202;SDS011;2115;51.038;7.006;2022-12-29T02:43:30;646.30;;;159.97;;
4202;SDS011;2115;51.038;7.006;2022-12-29T02:45:33;626.33;;;155.03;;
4202;SDS011;2115;51.038;7.006;2022-12-29T02:48:29;637.50;;;156.23;;
4202;SDS011;2115;51.038;7.006;2022-12-29T02:51:00;633.30;;;155.40;;
4202;SDS011;2115;51.038;7.006;2022-12-29T02:53:27;630.50;;;153.40;;
4202;SDS011;2115;51.038;7.006;2022-12-29T02:56:13;629.73;;;154.90;;
4202;SDS011;2115;51.038;7.006;2022-12-29T02:58:38;629.83;;;153.50;;
4202;SDS011;2115;51.038;7.006;2022-12-29T03:12:20;635.87;;;156.63;;
4202;SDS011;2115;51.038;7.006;2022-12-29T03:15:10;631.93;;;155.63;;
4202;SDS011;2115;51.038;7.006;2022-12-29T03:18:06;644.87;;;158.53;;
4202;SDS011;2115;51.038;7.006;2022-12-29T03:20:42;638.87;;;157.07;;
4202;SDS011;2115;51.038;7.006;2022-12-29T03:23:14;632.37;;;157.30;;
4202;SDS011;2115;51.038;7.006;2022-12-29T03:25:42;632.77;;;155.40;;
4202;SDS011;2115;51.038;7.006;2022-12-29T03:28:18;632.80;;;155.07;;
4202;SDS011;2115;51.038;7.006;2022-12-29T03:30:46;629.10;;;154.57;;
4202;SDS011;2115;51.038;7.006;2022-12-29T03:33:13;632.37;;;155.63;;
4202;SDS011;2115;51.038;7.006;2022-12-29T03:35:41;626.13;;;151.97;;
4202;SDS011;2115;51.038;7.006;2022-12-29T03:38:13;633.87;;;160.23;;
4202;SDS011;2115;51.038;7.006;2022-12-29T03:40:43;630.33;;;155.40;;
4202;SDS011;2115;51.038;7.006;2022-12-29T03:43:10;628.43;;;154.10;;
4202;SDS011;2115;51.038;7.006;2022-12-29T03:45:37;631.30;;;154.80;;
4202;SDS011;2115;51.038;7.006;2022-12-29T03:48:03;624.33;;;152.43;;
4202;SDS011;2115;51.038;7.006;2022-12-29T03:50:28;626.33;;;159.17;;
4202;SDS011;2115;51.038;7.006;2022-12-29T03:52:53;622.07;;;153.50;;
4202;SDS011;2115;51.038;7.006;2022-12-29T03:55:19;618.33;;;152.97;;
4202;SDS011;2115;51.038;7.006;2022-12-29T03:57:44;621.07;;;153.97;;
4202;SDS011;2115;51.038;7.006;2022-12-29T04:00:10;629.03;;;155.20;;
4202;SDS011;2115;51.038;7.006;2022-12-29T04:02:36;623.60;;;154.23;;
4202;SDS011;2115;51.038;7.006;2022-12-29T04:05:01;623.73;;;154.30;;
4202;SDS011;2115;51.038;7.006;2022-12-29T04:07:26;627.87;;;157.40;;
4202;SDS011;2115;51.038;7.006;2022-12-29T04:09:52;624.50;;;155.27;;
4202;SDS011;2115;51.038;7.006;2022-12-29T04:12:17;623.10;;;155.20;;
4202;SDS011;2115;51.038;7.006;2022-12-29T04:14:42;614.23;;;154.53;;
4202;SDS011;2115;51.038;7.006;2022-12-29T04:17:08;623.70;;;154.43;;
4202;SDS011;2115;51.038;7.006;2022-12-29T04:19:33;623.47;;;153.73;;
4202;SDS011;2115;51.038;7.006;2022-12-29T04:21:59;619.73;;;152.90;;
4202;SDS011;2115;51.038;7.006;2022-12-29T04:24:24;615.50;;;150.60;;
4202;SDS011;2115;51.038;7.006;2022-12-29T04:26:49;615.23;;;152.60;;
4202;SDS011;2115;51.038;7.006;2022-12-29T04:29:15;608.87;;;150.80;;
4202;SDS011;2115;51.038;7.006;2022-12-29T04:31:40;616.77;;;153.03;;
4202;SDS011;2115;51.038;7.006;2022-12-29T04:34:06;611.30;;;153.03;;
4202;SDS011;2115;51.038;7.006;2022-12-29T04:36:31;612.00;;;153.07;;
4202;SDS011;2115;51.038;7.006;2022-12-29T04:38:57;604.97;;;150.27;;
4202;SDS011;2115;51.038;7.006;2022-12-29T04:41:22;617.00;;;153.63;;
4202;SDS011;2115;51.038;7.006;2022-12-29T04:43:47;616.57;;;153.93;;
4202;SDS011;2115;51.038;7.006;2022-12-29T04:46:13;618.60;;;153.20;;
4202;SDS011;2115;51.038;7.006;2022-12-29T04:48:38;614.90;;;154.03;;
4202;SDS011;2115;51.038;7.006;2022-12-29T04:51:03;612.23;;;153.47;;
4202;SDS011;2115;51.038;7.006;2022-12-29T04:53:29;616.23;;;152.77;;
4202;SDS011;2115;51.038;7.006;2022-12-29T04:55:54;623.57;;;155.60;;
4202;SDS011;2115;51.038;7.006;2022-12-29T04:58:20;619.73;;;156.37;;
4202;SDS011;2115;51.038;7.006;2022-12-29T05:00:45;619.33;;;153.33;;
4202;SDS011;2115;51.038;7.006;2022-12-29T05:03:11;622.83;;;154.20;;
4202;SDS011;2115;51.038;7.006;2022-12-29T05:05:36;618.60;;;153.87;;
4202;SDS011;2115;51.038;7.006;2022-12-29T05:08:02;643.03;;;160.77;;
4202;SDS011;2115;51.038;7.006;2022-12-29T05:10:27;625.47;;;153.87;;
4202;SDS011;2115;51.038;7.006;2022-12-29T05:12:52;618.73;;;153.10;;
4202;SDS011;2115;51.038;7.006;2022-12-29T05:15:18;619.30;;;152.67;;
4202;SDS011;2115;51.038;7.006;2022-12-29T05:17:44;629.30;;;155.00;;
4202;SDS011;2115;51.038;7.006;2022-12-29T05:20:09;621.73;;;154.17;;
4202;SDS011;2115;51.038;7.006;2022-12-29T05:22:35;626.33;;;155.20;;
4202;SDS011;2115;51.038;7.006;2022-12-29T05:25:00;645.20;;;159.63;;
4202;SDS011;2115;51.038;7.006;2022-12-29T05:27:26;629.53;;;155.57;;
4202;SDS011;2115;51.038;7.006;2022-12-29T05:29:51;624.20;;;155.40;;
4202;SDS011;2115;51.038;7.006;2022-12-29T05:32:17;625.67;;;156.47;;
4202;SDS011;2115;51.038;7.006;2022-12-29T05:34:42;641.17;;;160.30;;
4202;SDS011;2115;51.038;7.006;2022-12-29T05:37:07;634.10;;;159.83;;
4202;SDS011;2115;51.038;7.006;2022-12-29T05:39:33;632.00;;;157.40;;
4202;SDS011;2115;51.038;7.006;2022-12-29T05:41:58;627.47;;;160.53;;
4202;SDS011;2115;51.038;7.006;2022-12-29T05:44:23;626.30;;;156.70;;
4202;SDS011;2115;51.038;7.006;2022-12-29T05:46:49;626.50;;;155.17;;
4202;SDS011;2115;51.038;7.006;2022-12-29T05:49:15;627.07;;;155.87;;
4202;SDS011;2115;51.038;7.006;2022-12-29T05:51:40;632.47;;;156.97;;
4202;SDS011;2115;51.038;7.006;2022-12-29T05:54:06;634.23;;;157.70;;
4202;SDS011;2115;51.038;7.006;2022-12-29T05:56:31;635.33;;;160.10;;
4202;SDS011;2115;51.038;7.006;2022-12-29T05:58:56;634.13;;;158.43;;
4202;SDS011;2115;51.038;7.006;2022-12-29T06:01:22;623.97;;;154.53;;
4202;SDS011;2115;51.038;7.006;2022-12-29T06:03:47;629.47;;;158.33;;
4202;SDS011;2115;51.038;7.006;2022-12-29T06:06:13;632.40;;;158.30;;
4202;SDS011;2115;51.038;7.006;2022-12-29T06:08:38;629.93;;;157.90;;
4202;SDS011;2115;51.038;7.006;2022-12-29T06:11:03;620.70;;;155.57;;
4202;SDS011;2115;51.038;7.006;2022-12-29T06:13:29;630.13;;;158.50;;
4202;SDS011;2115;51.038;7.006;2022-12-29T06:15:54;624.97;;;155.67;;
4202;SDS011;2115;51.038;7.006;2022-12-29T06:18:19;610.20;;;153.70;;
4202;SDS011;2115;51.038;7.006;2022-12-29T06:20:45;617.80;;;155.03;;
4202;SDS011;2115;51.038;7.006;2022-12-29T06:23:10;616.30;;;155.50;;
4202;SDS011;2115;51.038;7.006;2022-12-29T06:25:38;618.57;;;157.20;;
4202;SDS011;2115;51.038;7.006;2022-12-29T06:28:03;612.47;;;153.97;;
4202;SDS011;2115;51.038;7.006;2022-12-29T06:30:30;614.87;;;158.10;;
4202;SDS011;2115;51.038;7.006;2022-12-29T06:32:55;617.03;;;157.23;;
4202;SDS011;2115;51.038;7.006;2022-12-29T06:35:21;618.57;;;157.27;;
4202;SDS011;2115;51.038;7.006;2022-12-29T06:37:49;612.10;;;155.10;;
4202;SDS011;2115;51.038;7.006;2022-12-29T06:40:14;616.73;;;159.67;;
4202;SDS011;2115;51.038;7.006;2022-12-29T06:42:40;614.87;;;158.17;;
4202;SDS011;2115;51.038;7.006;2022-12-29T06:45:05;623.63;;;159.83;;
4202;SDS011;2115;51.038;7.006;2022-12-29T06:47:32;614.13;;;156.57;;
4202;SDS011;2115;51.038;7.006;2022-12-29T06:49:58;628.80;;;161.60;;
4202;SDS011;2115;51.038;7.006;2022-12-29T06:52:23;612.00;;;157.53;;
4202;SDS011;2115;51.038;7.006;2022-12-29T06:54:49;615.57;;;156.07;;
4202;SDS011;2115;51.038;7.006;2022-12-29T06:57:15;496.80;;;122.00;;
4202;SDS011;2115;51.038;7.006;2022-12-29T06:59:40;607.57;;;155.10;;
4202;SDS011;2115;51.038;7.006;2022-12-29T07:02:06;607.10;;;156.60;;
4202;SDS011;2115;51.038;7.006;2022-12-29T07:04:31;614.13;;;156.90;;
4202;SDS011;2115;51.038;7.006;2022-12-29T07:06:57;610.93;;;155.50;;
4202;SDS011;2115;51.038;7.006;2022-12-29T07:09:22;611.70;;;158.27;;
4202;SDS011;2115;51.038;7.006;2022-12-29T07:11:47;605.97;;;156.30;;
4202;SDS011;2115;51.038;7.006;2022-12-29T07:14:13;602.87;;;156.97;;
4202;SDS011;2115;51.038;7.006;2022-12-29T07:16:38;606.70;;;158.13;;
4202;SDS011;2115;51.038;7.006;2022-12-29T07:19:04;609.00;;;156.87;;
4202;SDS011;2115;51.038;7.006;2022-12-29T07:21:29;609.30;;;158.40;;
4202;SDS011;2115;51.038;7.006;2022-12-29T07:23:55;603.33;;;157.27;;
4202;SDS011;2115;51.038;7.006;2022-12-29T07:26:27;608.17;;;158.67;;
4202;SDS011;2115;51.038;7.006;2022-12-29T07:28:52;608.50;;;155.77;;
4202;SDS011;2115;51.038;7.006;2022-12-29T07:31:19;602.87;;;157.60;;
4202;SDS011;2115;51.038;7.006;2022-12-29T07:33:46;604.63;;;158.33;;
4202;SDS011;2115;51.038;7.006;2022-12-29T07:36:12;513.67;;;130.07;;
4202;SDS011;2115;51.038;7.006;2022-12-29T07:38:38;605.03;;;158.67;;
4202;SDS011;2115;51.038;7.006;2022-12-29T07:41:04;602.13;;;157.50;;
4202;SDS011;2115;51.038;7.006;2022-12-29T07:43:29;608.97;;;157.50;;
4202;SDS011;2115;51.038;7.006;2022-12-29T07:45:55;601.77;;;158.83;;
4202;SDS011;2115;51.038;7.006;2022-12-29T07:48:20;599.37;;;157.37;;
4202;SDS011;2115;51.038;7.006;2022-12-29T07:50:46;602.97;;;157.50;;
4202;SDS011;2115;51.038;7.006;2022-12-29T07:53:11;599.40;;;157.97;;
4202;SDS011;2115;51.038;7.006;2022-12-29T07:55:37;603.17;;;156.07;;
4202;SDS011;2115;51.038;7.006;2022-12-29T07:58:02;598.97;;;159.63;;
4202;SDS011;2115;51.038;7.006;2022-12-29T08:00:27;595.47;;;158.53;;
4202;SDS011;2115;51.038;7.006;2022-12-29T08:02:53;594.00;;;157.00;;
4202;SDS011;2115;51.038;7.006;2022-12-29T08:05:18;598.47;;;159.27;;
4202;SDS011;2115;51.038;7.006;2022-12-29T08:07:44;591.93;;;158.67;;
4202;SDS011;2115;51.038;7.006;2022-12-29T08:10:10;595.27;;;160.00;;
4202;SDS011;2115;51.038;7.006;2022-12-29T08:12:37;588.23;;;157.37;;
4202;SDS011;2115;51.038;7.006;2022-12-29T08:15:03;589.87;;;157.40;;
4202;SDS011;2115;51.038;7.006;2022-12-29T08:17:29;589.03;;;157.90;;
4202;SDS011;2115;51.038;7.006;2022-12-29T08:19:54;591.20;;;157.27;;
4202;SDS011;2115;51.038;7.006;2022-12-29T08:22:20;591.17;;;158.07;;
4202;SDS011;2115;51.038;7.006;2022-12-29T08:24:45;604.23;;;159.97;;
4202;SDS011;2115;51.038;7.006;2022-12-29T08:27:10;598.40;;;161.30;;
4202;SDS011;2115;51.038;7.006;2022-12-29T08:29:36;594.53;;;157.80;;
4202;SDS011;2115;51.038;7.006;2022-12-29T08:32:01;590.17;;;157.17;;
4202;SDS011;2115;51.038;7.006;2022-12-29T08:34:27;598.77;;;157.90;;
4202;SDS011;2115;51.038;7.006;2022-12-29T08:36:52;588.93;;;155.70;;
4202;SDS011;2115;51.038;7.006;2022-12-29T08:39:17;585.07;;;157.63;;
4202;SDS011;2115;51.038;7.006;2022-12-29T08:41:43;579.60;;;157.90;;
4202;SDS011;2115;51.038;7.006;2022-12-29T08:44:08;578.00;;;156.67;;
4202;SDS011;2115;51.038;7.006;2022-12-29T08:46:34;583.27;;;159.47;;
4202;SDS011;2115;51.038;7.006;2022-12-29T08:48:59;583.83;;;158.83;;
4202;SDS011;2115;51.038;7.006;2022-12-29T08:51:24;578.10;;;157.17;;
4202;SDS011;2115;51.038;7.006;2022-12-29T08:53:50;576.60;;;158.20;;
4202;SDS011;2115;51.038;7.006;2022-12-29T08:56:15;577.27;;;157.20;;
4202;SDS011;2115;51.038;7.006;2022-12-29T08:58:41;594.60;;;167.80;;
4202;SDS011;2115;51.038;7.006;2022-12-29T09:01:06;576.67;;;170.83;;
4202;SDS011;2115;51.038;7.006;2022-12-29T09:03:32;570.70;;;167.77;;
4202;SDS011;2115;51.038;7.006;2022-12-29T09:05:57;564.10;;;158.07;;
4202;SDS011;2115;51.038;7.006;2022-12-29T09:08:22;600.53;;;166.40;;
4202;SDS011;2115;51.038;7.006;2022-12-29T09:10:48;582.43;;;164.90;;
4202;SDS011;2115;51.038;7.006;2022-12-29T09:13:14;584.17;;;169.47;;
4202;SDS011;2115;51.038;7.006;2022-12-29T09:15:39;576.80;;;161.80;;
4202;SDS011;2115;51.038;7.006;2022-12-29T09:18:05;569.07;;;158.17;;
4202;SDS011;2115;51.038;7.006;2022-12-29T09:20:31;570.87;;;160.17;;
4202;SDS011;2115;51.038;7.006;2022-12-29T09:22:57;577.33;;;159.50;;
4202;SDS011;2115;51.038;7.006;2022-12-29T09:25:22;598.10;;;165.13;;
4202;SDS011;2115;51.038;7.006;2022-12-29T09:27:49;570.57;;;165.87;;
4202;SDS011;2115;51.038;7.006;2022-12-29T09:30:18;573.80;;;163.30;;
4202;SDS011;2115;51.038;7.006;2022-12-29T09:32:44;569.00;;;158.43;;
4202;SDS011;2115;51.038;7.006;2022-12-29T09:35:10;498.43;;;132.97;;
4202;SDS011;2115;51.038;7.006;2022-12-29T09:37:35;576.80;;;160.77;;
4202;SDS011;2115;51.038;7.006;2022-12-29T09:40:02;575.47;;;160.67;;
4202;SDS011;2115;51.038;7.006;2022-12-29T09:47:24;568.47;;;161.37;;
4202;SDS011;2115;51.038;7.006;2022-12-29T09:49:59;562.97;;;159.33;;
4202;SDS011;2115;51.038;7.006;2022-12-29T09:53:29;574.80;;;160.93;;
4202;SDS011;2115;51.038;7.006;2022-12-29T09:55:33;483.60;;;132.90;;
4202;SDS011;2115;51.038;7.006;2022-12-29T09:58:02;584.87;;;167.67;;
4202;SDS011;2115;51.038;7.006;2022-12-29T10:00:37;565.13;;;169.20;;
4202;SDS011;2115;51.038;7.006;2022-12-29T10:03:14;486.70;;;137.40;;
4202;SDS011;2115;51.038;7.006;2022-12-29T10:24:43;592.27;;;164.63;;
4202;SDS011;2115;51.038;7.006;2022-12-29T10:27:10;594.47;;;166.17;;
4202;SDS011;2115;51.038;7.006;2022-12-29T10:29:37;603.60;;;168.93;;
4202;SDS011;2115;51.038;7.006;2022-12-29T10:32:25;614.23;;;171.57;;
4202;SDS011;2115;51.038;7.006;2022-12-29T10:34:56;583.07;;;163.47;;
4202;SDS011;2115;51.038;7.006;2022-12-29T10:40:15;591.07;;;165.80;;
4202;SDS011;2115;51.038;7.006;2022-12-29T10:42:46;596.60;;;168.97;;
4202;SDS011;2115;51.038;7.006;2022-12-29T10:45:16;591.03;;;167.70;;
4202;SDS011;2115;51.038;7.006;2022-12-29T10:47:53;580.37;;;164.97;;
4202;SDS011;2115;51.038;7.006;2022-12-29T10:50:23;599.60;;;165.60;;
4202;SDS011;2115;51.038;7.006;2022-12-29T10:52:50;591.73;;;164.90;;
4202;SDS011;2115;51.038;7.006;2022-12-29T10:55:24;565.53;;;159.20;;
4202;SDS011;2115;51.038;7.006;2022-12-29T10:57:53;489.37;;;132.27;;
4202;SDS011;2115;51.038;7.006;2022-12-29T11:00:20;576.83;;;162.67;;
4202;SDS011;2115;51.038;7.006;2022-12-29T11:03:34;581.20;;;163.83;;
4202;SDS011;2115;51.038;7.006;2022-12-29T11:08:24;499.27;;;135.83;;
4202;SDS011;2115;51.038;7.006;2022-12-29T11:11:04;587.53;;;167.33;;
4202;SDS011;2115;51.038;7.006;2022-12-29T11:13:31;600.97;;;170.87;;
4202;SDS011;2115;51.038;7.006;2022-12-29T11:16:11;576.27;;;166.03;;
4202;SDS011;2115;51.038;7.006;2022-12-29T11:18:37;583.40;;;167.37;;
4202;SDS011;2115;51.038;7.006;2022-12-29T11:24:20;578.37;;;166.43;;
4202;SDS011;2115;51.038;7.006;2022-12-29T11:26:51;570.50;;;162.97;;
4202;SDS011;2115;51.038;7.006;2022-12-29T11:29:27;586.70;;;166.53;;
4202;SDS011;2115;51.038;7.006;2022-12-29T11:31:55;495.73;;;135.93;;
4202;SDS011;2115;51.038;7.006;2022-12-29T11:34:32;568.90;;;164.33;;
4202;SDS011;2115;51.038;7.006;2022-12-29T11:37:06;496.43;;;137.13;;
4202;SDS011;2115;51.038;7.006;2022-12-29T11:42:22;562.00;;;163.37;;
4202;SDS011;2115;51.038;7.006;2022-12-29T11:45:20;563.07;;;163.80;;
4202;SDS011;2115;51.038;7.006;2022-12-29T11:47:52;481.13;;;133.80;;
4202;SDS011;2115;51.038;7.006;2022-12-29T11:50:29;559.40;;;161.37;;
4202;SDS011;2115;51.038;7.006;2022-12-29T11:53:00;462.57;;;126.83;;
4202;SDS011;2115;51.038;7.006;2022-12-29T11:55:27;554.73;;;158.77;;
4202;SDS011;2115;51.038;7.006;2022-12-29T11:57:53;559.40;;;159.73;;
4202;SDS011;2115;51.038;7.006;2022-12-29T12:00:23;555.37;;;158.10;;
4202;SDS011;2115;51.038;7.006;2022-12-29T12:02:51;461.70;;;127.10;;
4202;SDS011;2115;51.038;7.006;2022-12-29T12:05:41;549.57;;;159.20;;
4202;SDS011;2115;51.038;7.006;2022-12-29T12:08:18;557.23;;;156.77;;
4202;SDS011;2115;51.038;7.006;2022-12-29T12:14:11;476.87;;;130.30;;
4202;SDS011;2115;51.038;7.006;2022-12-29T12:16:41;579.23;;;163.50;;
4202;SDS011;2115;51.038;7.006;2022-12-29T12:22:21;476.87;;;131.33;;
4202;SDS011;2115;51.038;7.006;2022-12-29T12:27:22;562.60;;;161.00;;
4202;SDS011;2115;51.038;7.006;2022-12-29T12:29:54;480.37;;;133.80;;
4202;SDS011;2115;51.038;7.006;2022-12-29T12:35:10;558.30;;;160.90;;
4202;SDS011;2115;51.038;7.006;2022-12-29T12:51:47;545.63;;;158.40;;
4202;SDS011;2115;51.038;7.006;2022-12-29T13:04:52;437.90;;;125.73;;
4202;SDS011;2115;51.038;7.006;2022-12-29T13:18:31;547.30;;;159.53;;
4202;SDS011;2115;51.038;7.006;2022-12-29T13:27:20;531.03;;;133.17;;
4202;SDS011;2115;51.038;7.006;2022-12-29T13:29:40;460.47;;;126.13;;
4202;SDS011;2115;51.038;7.006;2022-12-29T13:35:19;473.97;;;137.63;;
4202;SDS011;2115;51.038;7.006;2022-12-29T13:37:51;434.57;;;125.10;;
4202;SDS011;2115;51.038;7.006;2022-12-29T13:40:21;540.80;;;156.77;;
4202;SDS011;2115;51.038;7.006;2022-12-29T13:42:49;537.47;;;155.63;;
4202;SDS011;2115;51.038;7.006;2022-12-29T13:45:17;538.10;;;157.20;;
4202;SDS011;2115;51.038;7.006;2022-12-29T13:50:14;535.40;;;158.53;;
4202;SDS011;2115;51.038;7.006;2022-12-29T13:52:49;528.73;;;155.37;;
4202;SDS011;2115;51.038;7.006;2022-12-29T13:55:20;534.97;;;159.40;;
4202;SDS011;2115;51.038;7.006;2022-12-29T13:58:31;525.50;;;154.90;;
4202;SDS011;2115;51.038;7.006;2022-12-29T14:08:41;431.10;;;122.40;;
4202;SDS011;2115;51.038;7.006;2022-12-29T14:11:08;521.70;;;152.77;;
4202;SDS011;2115;51.038;7.006;2022-12-29T14:13:37;521.30;;;152.80;;
4202;SDS011;2115;51.038;7.006;2022-12-29T14:16:04;434.33;;;122.23;;
4202;SDS011;2115;51.038;7.006;2022-12-29T14:18:31;432.53;;;122.33;;
4202;SDS011;2115;51.038;7.006;2022-12-29T14:28:32;517.83;;;152.97;;
4202;SDS011;2115;51.038;7.006;2022-12-29T14:33:40;513.37;;;151.70;;
4202;SDS011;2115;51.038;7.006;2022-12-29T14:36:19;507.20;;;150.27;;
4202;SDS011;2115;51.038;7.006;2022-12-29T14:39:01;421.80;;;121.13;;
4202;SDS011;2115;51.038;7.006;2022-12-29T14:41:40;513.70;;;151.47;;
4202;SDS011;2115;51.038;7.006;2022-12-29T14:44:16;419.83;;;122.17;;
4202;SDS011;2115;51.038;7.006;2022-12-29T14:46:47;518.47;;;150.27;;
4202;SDS011;2115;51.038;7.006;2022-12-29T14:49:21;507.30;;;148.83;;
4202;SDS011;2115;51.038;7.006;2022-12-29T14:51:50;511.30;;;150.53;;
4202;SDS011;2115;51.038;7.006;2022-12-29T14:57:01;518.97;;;154.00;;
4202;SDS011;2115;51.038;7.006;2022-12-29T14:59:28;522.40;;;153.67;;
4202;SDS011;2115;51.038;7.006;2022-12-29T15:01:55;492.53;;;142.67;;
4202;SDS011;2115;51.038;7.006;2022-12-29T15:04:22;519.23;;;150.43;;
4202;SDS011;2115;51.038;7.006;2022-12-29T15:06:51;516.80;;;151.37;;
4202;SDS011;2115;51.038;7.006;2022-12-29T15:09:22;511.67;;;150.30;;
4202;SDS011;2115;51.038;7.006;2022-12-29T15:14:47;529.00;;;153.43;;
4202;SDS011;2115;51.038;7.006;2022-12-29T15:17:24;423.17;;;121.07;;
4202;SDS011;2115;51.038;7.006;2022-12-29T15:19:52;519.00;;;148.57;;
4202;SDS011;2115;51.038;7.006;2022-12-29T15:22:17;428.17;;;122.13;;
4202;SDS011;2115;51.038;7.006;2022-12-29T15:24:43;499.77;;;144.40;;
4202;SDS011;2115;51.038;7.006;2022-12-29T15:27:15;517.83;;;151.77;;
4202;SDS011;2115;51.038;7.006;2022-12-29T15:29:43;510.67;;;150.50;;
4202;SDS011;2115;51.038;7.006;2022-12-29T15:32:20;512.57;;;150.37;;
4202;SDS011;2115;51.038;7.006;2022-12-29T15:34:48;425.63;;;120.70;;
4202;SDS011;2115;51.038;7.006;2022-12-29T15:37:25;515.43;;;151.23;;
4202;SDS011;2115;51.038;7.006;2022-12-29T15:40:03;423.53;;;123.40;;
4202;SDS011;2115;51.038;7.006;2022-12-29T15:45:10;500.77;;;149.37;;
4202;SDS011;2115;51.038;7.006;2022-12-29T15:47:36;503.47;;;150.20;;
4202;SDS011;2115;51.038;7.006;2022-12-29T15:50:06;500.67;;;148.37;;
4202;SDS011;2115;51.038;7.006;2022-12-29T15:52:37;501.47;;;148.97;;
4202;SDS011;2115;51.038;7.006;2022-12-29T15:55:04;493.20;;;147.13;;
4202;SDS011;2115;51.038;7.006;2022-12-29T15:57:30;492.47;;;148.53;;
4202;SDS011;2115;51.038;7.006;2022-12-29T16:00:01;493.67;;;147.47;;
4202;SDS011;2115;51.038;7.006;2022-12-29T16:02:28;77.17;;;19.30;;
4202;SDS011;2115;51.038;7.006;2022-12-29T16:04:53;489.33;;;144.63;;
4202;SDS011;2115;51.038;7.006;2022-12-29T16:07:28;475.67;;;139.80;;
4202;SDS011;2115;51.038;7.006;2022-12-29T16:09:56;492.10;;;143.33;;
4202;SDS011;2115;51.038;7.006;2022-12-29T16:12:23;494.53;;;145.50;;
4202;SDS011;2115;51.038;7.006;2022-12-29T16:14:56;491.70;;;146.00;;
4202;SDS011;2115;51.038;7.006;2022-12-29T16:17:24;530.43;;;155.57;;
4202;SDS011;2115;51.038;7.006;2022-12-29T16:19:58;498.50;;;149.33;;
4202;SDS011;2115;51.038;7.006;2022-12-29T16:22:33;509.77;;;151.20;;
4202;SDS011;2115;51.038;7.006;2022-12-29T16:25:01;491.03;;;147.90;;
4202;SDS011;2115;51.038;7.006;2022-12-29T16:27:35;488.90;;;146.30;;
4202;SDS011;2115;51.038;7.006;2022-12-29T16:30:04;502.07;;;150.33;;
4202;SDS011;2115;51.038;7.006;2022-12-29T16:32:31;492.30;;;148.57;;
4202;SDS011;2115;51.038;7.006;2022-12-29T16:35:11;486.97;;;145.97;;
4202;SDS011;2115;51.038;7.006;2022-12-29T16:37:39;484.23;;;144.30;;
4202;SDS011;2115;51.038;7.006;2022-12-29T16:40:22;497.60;;;147.23;;
4202;SDS011;2115;51.038;7.006;2022-12-29T16:42:59;489.63;;;147.53;;
4202;SDS011;2115;51.038;7.006;2022-12-29T16:45:48;475.77;;;141.97;;
4202;SDS011;2115;51.038;7.006;2022-12-29T16:48:34;463.57;;;134.40;;
4202;SDS011;2115;51.038;7.006;2022-12-29T16:51:03;481.30;;;141.37;;
4202;SDS011;2115;51.038;7.006;2022-12-29T16:53:35;482.50;;;143.97;;
4202;SDS011;2115;51.038;7.006;2022-12-29T16:56:12;486.27;;;147.37;;
4202;SDS011;2115;51.038;7.006;2022-12-29T16:58:45;471.47;;;139.17;;